Time;durP1;ratioP1;P1;durP2;ratioP2;P2;SDS_P1;SDS_P2;PMS_P1;PMS_P2;Temp;Humidity;BMP_temperature;BMP_pressure;BME280_temperature;BME280_humidity;BME280_pressure;Samples;Min_cycle;Max_cycle;Signal;HPM_P1;HPM_P2
2023/03/06 00:00:47;;;;;;;6.55;3.10;;;;;;;-146.27;100.00;48391.63;5078201;28;20025;-67
2023/03/06 00:03:13;;;;;;;7.28;3.10;;;;;;;-146.27;100.00;48413.53;5085703;28;20032;-68
2023/03/06 00:05:38;;;;;;;7.43;3.58;;;;;;;-146.27;100.00;48401.56;5090728;28;20040;-67
2023/03/06 00:08:04;;;;;;;7.28;3.65;;;;;;;-146.27;100.00;48423.50;5093331;28;20012;-67
2023/03/06 00:10:31;;;;;;;5.97;2.90;;;;;;;-146.27;100.00;48415.53;5083698;28;20032;-66
2023/03/06 00:13:00;;;;;;;5.95;3.42;;;;;;;-146.27;100.00;48407.56;5089352;28;20024;-67
2023/03/06 00:15:26;;;;;;;5.80;4.00;;;;;;;-146.27;100.00;48435.44;5084737;28;20020;-67
2023/03/06 00:17:52;;;;;;;7.35;4.05;;;;;;;-146.27;100.00;48389.63;5093014;28;20038;-68
2023/03/06 00:20:18;;;;;;;6.50;3.85;;;;;;;-146.27;100.00;48407.56;5083814;28;20099;-67
2023/03/06 00:22:44;;;;;;;5.75;3.80;;;;;;;-146.27;100.00;48407.56;5088853;28;20050;-67
2023/03/06 00:25:16;;;;;;;8.18;5.07;;;;;;;-146.27;100.00;48371.69;5089629;28;20024;-67
2023/03/06 00:27:42;;;;;;;6.20;4.18;;;;;;;-146.27;100.00;48419.50;5082726;28;20028;-68
2023/03/06 00:30:10;;;;;;;12.35;4.63;;;;;;;-146.27;100.00;48397.59;5086858;28;20077;-66
2023/03/06 00:32:36;;;;;;;9.73;4.15;;;;;;;-146.27;100.00;48407.56;5086826;28;20078;-66
2023/03/06 00:35:01;;;;;;;11.48;4.72;;;;;;;-146.27;100.00;48391.63;5086581;28;20020;-67
2023/03/06 00:37:26;;;;;;;9.45;4.95;;;;;;;-146.27;100.00;48403.56;5088014;28;20062;-66
2023/03/06 00:39:52;;;;;;;6.15;4.18;;;;;;;-146.27;100.00;48389.63;5086578;28;20020;-68
2023/03/06 00:42:19;;;;;;;5.45;3.58;;;;;;;-146.27;100.00;48427.47;5091346;28;20038;-67
2023/03/06 00:44:45;;;;;;;10.50;4.57;;;;;;;-146.27;100.00;48409.53;5091133;28;20043;-67
2023/03/06 00:47:11;;;;;;;9.95;4.40;;;;;;;-146.27;100.00;48397.59;5090423;28;20486;-66
2023/03/06 00:49:36;;;;;;;7.63;4.35;;;;;;;-146.27;100.00;48411.53;5090727;28;20081;-68
2023/03/06 00:52:02;;;;;;;11.32;4.20;;;;;;;-146.27;100.00;48379.66;5091738;28;20052;-67
2023/03/06 00:54:27;;;;;;;11.85;4.07;;;;;;;-146.27;100.00;48387.63;5087896;28;20042;-67
2023/03/06 00:56:53;;;;;;;9.70;3.65;;;;;;;-146.27;100.00;48393.63;5086403;28;20066;-65
2023/03/06 00:59:18;;;;;;;10.77;3.30;;;;;;;-146.27;100.00;48409.53;5088943;28;20032;-67
2023/03/06 01:01:44;;;;;;;9.98;2.55;;;;;;;-146.27;100.00;48401.56;5085304;28;20027;-68
2023/03/06 01:04:09;;;;;;;3.28;2.10;;;;;;;-146.27;100.00;48397.59;5088081;28;20027;-66
2023/03/06 01:06:35;;;;;;;3.90;2.10;;;;;;;-146.27;100.00;48387.63;5086592;28;20044;-67
2023/03/06 01:09:01;;;;;;;7.40;1.92;;;;;;;-146.27;100.00;48395.59;5090416;28;20095;-69
2023/03/06 01:11:26;;;;;;;3.80;1.83;;;;;;;-146.27;100.00;48363.75;5088858;28;20060;-67
2023/03/06 01:13:51;;;;;;;7.22;1.88;;;;;;;-146.27;100.00;48443.41;5088000;28;20024;-66
2023/03/06 01:16:18;;;;;;;5.22;2.25;;;;;;;-146.27;100.00;48407.56;5088915;28;20016;-67
2023/03/06 01:18:44;;;;;;;3.33;1.77;;;;;;;-146.27;100.00;48429.47;5087290;28;20502;-68
2023/03/06 01:21:11;;;;;;;4.20;2.10;;;;;;;-146.27;100.00;48419.50;5086058;28;20483;-67
2023/03/06 01:23:36;;;;;;;3.53;1.80;;;;;;;-146.27;100.00;48413.53;5092110;28;20023;-67
2023/03/06 01:26:02;;;;;;;4.47;1.95;;;;;;;-146.27;100.00;48411.53;5090070;28;20360;-66
2023/03/06 01:28:27;;;;;;;5.75;1.90;;;;;;;-146.27;100.00;48385.66;5084020;28;20026;-66
2023/03/06 01:30:53;;;;;;;4.88;1.60;;;;;;;-146.27;100.00;48435.44;5089689;28;20024;-67
2023/03/06 01:33:18;;;;;;;2.80;1.92;;;;;;;-146.27;100.00;48383.66;5085291;28;20039;-67
2023/03/06 01:35:44;;;;;;;2.65;1.40;;;;;;;-146.27;100.00;48369.72;5080908;28;20036;-67
2023/03/06 01:38:10;;;;;;;1.83;1.40;;;;;;;-146.27;100.00;48395.59;5089337;28;20063;-66
2023/03/06 01:40:36;;;;;;;4.22;1.60;;;;;;;-146.27;100.00;48417.50;5084408;28;20116;-67
2023/03/06 01:43:25;;;;;;;8.13;1.67;;;;;;;-146.27;100.00;48423.50;5087482;28;20032;-67
2023/03/06 01:45:51;;;;;;;8.07;1.85;;;;;;;-146.27;100.00;48395.59;5087335;28;20032;-66
2023/03/06 01:48:23;;;;;;;5.22;1.70;;;;;;;-146.27;100.00;48393.63;5081989;28;20333;-67
2023/03/06 01:50:51;;;;;;;1.90;1.45;;;;;;;-146.27;100.00;48355.78;5077569;28;20399;-67
2023/03/06 01:53:18;;;;;;;4.43;1.60;;;;;;;-146.27;100.00;48423.50;5084278;28;20032;-67
2023/03/06 01:55:43;;;;;;;5.13;2.05;;;;;;;-146.27;100.00;48375.69;5090243;28;20040;-69
2023/03/06 01:58:14;;;;;;;2.67;1.65;;;;;;;-146.27;100.00;48359.75;5090194;28;20069;-66
2023/03/06 02:00:39;;;;;;;2.38;1.55;;;;;;;-146.27;100.00;48397.59;5087185;28;20020;-68
2023/03/06 02:03:10;;;;;;;2.85;1.52;;;;;;;-146.27;100.00;48375.69;5090814;28;20494;-67
2023/03/06 02:05:36;;;;;;;3.30;1.42;;;;;;;-146.27;100.00;48385.66;5090715;28;20044;-66
2023/03/06 02:08:03;;;;;;;3.88;1.50;;;;;;;-146.27;100.00;48415.53;5088008;28;20020;-65
2023/03/06 02:10:29;;;;;;;3.97;1.70;;;;;;;-146.27;100.00;48411.53;5090746;28;20032;-67
2023/03/06 02:12:54;;;;;;;1.73;1.40;;;;;;;-146.27;100.00;48415.53;5086884;28;20039;-67
2023/03/06 02:15:23;;;;;;;3.72;1.60;;;;;;;-146.27;100.00;48401.56;5082322;28;20023;-67
2023/03/06 02:17:50;;;;;;;2.13;1.50;;;;;;;-146.27;100.00;48411.53;5090997;28;20032;-67
2023/03/06 02:20:23;;;;;;;3.22;1.40;;;;;;;-146.27;100.00;48423.50;5082268;28;20422;-67
2023/03/06 02:22:58;;;;;;;5.82;1.80;;;;;;;-146.27;100.00;48409.53;5090577;28;20051;-66
2023/03/06 02:25:39;;;;;;;2.72;1.17;;;;;;;-146.27;100.00;48385.66;5083283;28;20019;-66
2023/03/06 02:28:07;;;;;;;4.13;1.42;;;;;;;-146.27;100.00;48395.59;5086013;28;20043;-68
2023/03/06 02:30:33;;;;;;;5.13;1.70;;;;;;;-146.27;100.00;48429.47;5088378;28;20101;-67
2023/03/06 02:32:58;;;;;;;5.93;1.80;;;;;;;-146.27;100.00;48419.50;5086936;28;20036;-67
2023/03/06 02:35:35;;;;;;;2.92;1.20;;;;;;;-146.27;100.00;48421.50;5084397;28;20055;-68
2023/03/06 02:38:08;;;;;;;5.53;1.73;;;;;;;-146.27;100.00;48397.59;5085123;28;20025;-65
2023/03/06 02:40:33;;;;;;;1.38;1.25;;;;;;;-146.27;100.00;48383.66;5091432;28;20028;-66
2023/03/06 02:42:59;;;;;;;2.05;1.02;;;;;;;-146.27;100.00;48375.69;5093562;28;20369;-66
2023/03/06 02:45:30;;;;;;;3.13;0.85;;;;;;;-146.27;100.00;48415.53;5082834;28;20024;-67
2023/03/06 02:47:56;;;;;;;1.92;0.95;;;;;;;-146.27;100.00;48403.56;5092501;28;20024;-67
2023/03/06 02:50:21;;;;;;;5.55;1.00;;;;;;;-146.27;100.00;48403.56;5084272;28;20039;-66
2023/03/06 02:52:46;;;;;;;4.13;1.23;;;;;;;-146.27;100.00;48399.59;5089905;28;20426;-67
2023/03/06 02:55:12;;;;;;;5.25;1.38;;;;;;;-146.27;100.00;48419.50;5089320;28;20034;-66
2023/03/06 02:57:37;;;;;;;1.00;0.88;;;;;;;-146.27;100.00;48427.47;5084731;28;20036;-65
2023/03/06 03:00:03;;;;;;;3.22;1.50;;;;;;;-146.27;100.00;48421.50;5091379;28;20020;-68
2023/03/06 03:02:29;;;;;;;3.58;1.40;;;;;;;-146.27;100.00;48387.63;5088267;28;20028;-67
2023/03/06 03:04:54;;;;;;;5.00;1.58;;;;;;;-146.27;100.00;48433.44;5091822;28;20085;-66
2023/03/06 03:07:20;;;;;;;2.33;1.00;;;;;;;-146.27;100.00;48399.59;5090969;28;20059;-67
2023/03/06 03:09:45;;;;;;;4.72;1.20;;;;;;;-146.27;100.00;48421.50;5089275;28;20034;-67
2023/03/06 03:12:10;;;;;;;4.60;1.38;;;;;;;-146.27;100.00;48371.69;5093353;28;20027;-67
2023/03/06 03:14:36;;;;;;;4.65;1.50;;;;;;;-146.27;100.00;48433.44;5076633;28;20055;-67
2023/03/06 03:17:01;;;;;;;3.33;1.55;;;;;;;-146.27;100.00;48413.53;5088452;28;20056;-67
2023/03/06 03:19:27;;;;;;;4.63;1.42;;;;;;;-146.27;100.00;48415.53;5087923;28;20360;-65
2023/03/06 03:21:52;;;;;;;8.05;1.85;;;;;;;-146.27;100.00;48411.53;5090398;28;20078;-67
2023/03/06 03:24:17;;;;;;;3.00;1.50;;;;;;;-146.27;100.00;48395.59;5093602;28;20100;-67
2023/03/06 03:26:43;;;;;;;3.78;1.85;;;;;;;-146.27;100.00;48419.50;5090108;28;20073;-68
2023/03/06 03:29:09;;;;;;;2.58;1.95;;;;;;;-146.27;100.00;48405.56;5074764;28;20056;-67
2023/03/06 03:31:35;;;;;;;2.55;1.85;;;;;;;-146.27;100.00;48401.56;5090177;28;20032;-67
2023/03/06 03:34:01;;;;;;;9.35;1.83;;;;;;;-146.27;100.00;48415.53;5089664;28;20468;-68
2023/03/06 03:36:27;;;;;;;3.97;1.02;;;;;;;-146.27;100.00;48411.53;5092666;28;20054;-69
2023/03/06 03:38:52;;;;;;;5.20;1.70;;;;;;;-146.27;100.00;48395.59;5088149;28;20020;-67
2023/03/06 03:41:18;;;;;;;4.07;1.50;;;;;;;-146.27;100.00;48415.53;5083802;28;20039;-68
2023/03/06 03:43:43;;;;;;;2.30;0.95;;;;;;;-146.27;100.00;48429.47;5091397;28;20016;-68
2023/03/06 03:46:09;;;;;;;2.50;1.15;;;;;;;-146.27;100.00;48413.53;5085156;28;20087;-67
2023/03/06 03:48:34;;;;;;;6.30;1.52;;;;;;;-146.27;100.00;48389.63;5090761;28;20024;-67
2023/03/06 03:51:05;;;;;;;5.38;1.25;;;;;;;-146.27;100.00;48413.53;5090769;28;20101;-68
2023/03/06 03:53:30;;;;;;;3.63;1.13;;;;;;;-146.27;100.00;48397.59;5085151;28;20459;-67
2023/03/06 03:55:55;;;;;;;3.92;1.10;;;;;;;-146.27;100.00;48385.66;5076415;28;20032;-67
2023/03/06 03:58:21;;;;;;;3.80;1.25;;;;;;;-146.27;100.00;48405.56;5090429;28;20418;-67
2023/03/06 04:00:46;;;;;;;1.48;1.08;;;;;;;-146.27;100.00;48383.66;5087948;28;20087;-67
2023/03/06 04:03:11;;;;;;;7.20;1.02;;;;;;;-146.27;100.00;48355.78;5091492;28;20020;-67
2023/03/06 04:05:37;;;;;;;4.78;1.00;;;;;;;-146.27;100.00;48403.56;5083049;28;20506;-68
2023/03/06 04:08:04;;;;;;;0.88;0.80;;;;;;;-146.27;100.00;48407.56;5091360;28;20036;-66
2023/03/06 04:10:30;;;;;;;6.18;1.25;;;;;;;-146.27;100.00;48381.66;5088902;28;20024;-67
2023/03/06 04:12:55;;;;;;;2.17;1.10;;;;;;;-146.27;100.00;48419.50;5082497;28;20025;-68
2023/03/06 04:15:21;;;;;;;1.45;0.73;;;;;;;-146.27;100.00;48399.59;5080423;28;20028;-67
2023/03/06 04:17:46;;;;;;;1.77;0.77;;;;;;;-146.27;100.00;48391.63;5080438;28;20027;-68
2023/03/06 04:20:11;;;;;;;3.97;1.10;;;;;;;-146.27;100.00;48405.56;5080752;28;20063;-66
2023/03/06 04:22:37;;;;;;;5.90;1.30;;;;;;;-146.27;100.00;48403.56;5083663;28;20036;-68
2023/03/06 04:25:02;;;;;;;3.05;1.30;;;;;;;-146.27;100.00;48383.66;5088389;28;20077;-67
2023/03/06 04:27:28;;;;;;;4.75;1.55;;;;;;;-146.27;100.00;48441.41;5085537;28;20590;-69
2023/03/06 04:29:55;;;;;;;3.60;1.38;;;;;;;-146.27;100.00;48403.56;5088639;28;20023;-66
2023/03/06 04:32:21;;;;;;;3.38;1.17;;;;;;;-146.27;100.00;48393.63;5092412;28;20034;-67
2023/03/06 04:34:46;;;;;;;5.53;1.20;;;;;;;-146.27;100.00;48387.63;5090131;28;20023;-67
2023/03/06 04:37:23;;;;;;;2.75;1.67;;;;;;;-146.27;100.00;48429.47;5092233;28;20028;-66
2023/03/06 04:39:49;;;;;;;2.65;1.42;;;;;;;-146.27;100.00;48419.50;5092321;28;20043;-68
2023/03/06 04:42:14;;;;;;;5.47;1.58;;;;;;;-146.27;100.00;48375.69;5082410;28;20382;-68
2023/03/06 04:44:40;;;;;;;3.78;2.25;;;;;;;-146.27;100.00;48395.59;5083617;28;20353;-67
2023/03/06 04:47:06;;;;;;;5.40;1.55;;;;;;;-146.27;100.00;48419.50;5085887;28;20080;-67
2023/03/06 04:49:31;;;;;;;9.15;2.63;;;;;;;-146.27;100.00;48417.50;5090895;28;20039;-67
2023/03/06 04:51:56;;;;;;;6.78;1.73;;;;;;;-146.27;100.00;48411.53;5075353;28;20372;-66
2023/03/06 04:54:22;;;;;;;2.70;1.73;;;;;;;-146.27;100.00;48395.59;5083436;28;20725;-69
2023/03/06 04:56:47;;;;;;;6.95;1.60;;;;;;;-146.27;100.00;48391.63;5087893;28;20031;-68
2023/03/06 04:59:13;;;;;;;9.30;2.03;;;;;;;-146.27;100.00;48403.56;5086990;28;20024;-65
2023/03/06 05:01:39;;;;;;;3.90;2.30;;;;;;;-146.27;100.00;48367.72;5081703;28;20078;-67
2023/03/06 05:04:05;;;;;;;6.57;2.10;;;;;;;-146.27;100.00;48415.53;5084388;28;20016;-67
2023/03/06 05:06:31;;;;;;;10.60;2.42;;;;;;;-146.27;100.00;48391.63;5083039;28;20047;-67
2023/03/06 05:08:56;;;;;;;4.70;2.30;;;;;;;-146.27;100.00;48361.75;5085339;28;20033;-66
2023/03/06 05:11:22;;;;;;;6.70;2.22;;;;;;;-146.27;100.00;48435.44;5087839;28;20024;-67
2023/03/06 05:13:48;;;;;;;6.18;2.25;;;;;;;-146.27;100.00;48355.78;5089612;28;20028;-67
2023/03/06 05:16:13;;;;;;;4.85;2.40;;;;;;;-146.27;100.00;48393.63;5085449;28;20025;-68
2023/03/06 05:18:39;;;;;;;4.03;2.13;;;;;;;-146.27;100.00;48385.66;5084698;28;20033;-67
2023/03/06 05:21:05;;;;;;;8.07;2.42;;;;;;;-146.27;100.00;48419.50;5088048;28;20024;-68
2023/03/06 05:23:32;;;;;;;5.65;2.47;;;;;;;-146.27;100.00;48407.56;5085672;28;20029;-66
2023/03/06 05:25:58;;;;;;;5.18;2.50;;;;;;;-146.27;100.00;48389.63;5090171;28;20128;-68
2023/03/06 05:28:24;;;;;;;5.63;2.03;;;;;;;-146.27;100.00;48427.47;5083886;28;20094;-66
2023/03/06 05:30:50;;;;;;;1.98;1.40;;;;;;;-146.27;100.00;48411.53;5088432;28;20119;-68
2023/03/06 05:33:15;;;;;;;3.15;1.27;;;;;;;-146.27;100.00;48397.59;5088735;28;20157;-68
2023/03/06 05:35:46;;;;;;;2.75;0.90;;;;;;;-146.27;100.00;48439.41;5080239;28;20044;-67
2023/03/06 05:38:12;;;;;;;1.15;0.50;;;;;;;-146.27;100.00;48415.53;5087666;28;20109;-67
2023/03/06 05:40:40;;;;;;;1.83;0.75;;;;;;;-146.27;100.00;48415.53;5076409;28;20371;-68
2023/03/06 05:43:07;;;;;;;4.40;0.73;;;;;;;-146.27;100.00;48393.63;5090816;28;20456;-67
2023/03/06 05:45:33;;;;;;;1.90;0.70;;;;;;;-146.27;100.00;48381.66;5091661;28;20118;-67
2023/03/06 05:47:58;;;;;;;3.95;1.75;;;;;;;-146.27;100.00;48431.47;5083899;28;20016;-67
2023/03/06 05:50:23;;;;;;;0.75;0.60;;;;;;;-146.27;100.00;48403.56;5083087;28;20086;-67
2023/03/06 05:52:49;;;;;;;2.75;0.82;;;;;;;-146.27;100.00;48391.63;5088127;28;20028;-67
2023/03/06 05:55:15;;;;;;;5.28;0.93;;;;;;;-146.27;100.00;48399.59;5083565;28;20028;-66
2023/03/06 05:57:41;;;;;;;1.05;0.45;;;;;;;-146.27;100.00;48387.63;5092266;28;20020;-68
2023/03/06 06:00:08;;;;;;;3.38;0.47;;;;;;;-146.27;100.00;48409.53;5091832;28;20024;-69
2023/03/06 06:02:34;;;;;;;3.85;0.90;;;;;;;-146.27;100.00;48399.59;5090330;28;20068;-67
2023/03/06 06:05:01;;;;;;;1.77;0.60;;;;;;;-146.27;100.00;48401.56;5093254;28;21336;-67
2023/03/06 06:07:26;;;;;;;2.67;0.70;;;;;;;-146.27;100.00;48415.53;5085825;28;20020;-67
2023/03/06 06:09:52;;;;;;;4.88;0.73;;;;;;;-146.27;100.00;48383.66;5087038;28;20028;-69
2023/03/06 06:12:17;;;;;;;1.33;0.63;;;;;;;-146.27;100.00;48411.53;5087862;28;20494;-68
2023/03/06 06:14:43;;;;;;;4.43;0.60;;;;;;;-146.27;100.00;48395.59;5090748;28;20107;-66
2023/03/06 06:17:08;;;;;;;0.63;0.57;;;;;;;-146.27;100.00;48399.59;5090110;28;20032;-67
2023/03/06 06:19:34;;;;;;;2.88;0.82;;;;;;;-146.27;100.00;48407.56;5089263;28;20024;-67
2023/03/06 06:22:01;;;;;;;13.52;3.25;;;;;;;-146.27;100.00;48387.63;5091386;28;20094;-67
2023/03/06 06:24:27;;;;;;;3.83;1.38;;;;;;;-146.27;100.00;48409.53;5095359;28;20028;-69
2023/03/06 06:26:54;;;;;;;2.30;0.90;;;;;;;-146.27;100.00;48421.50;5089566;28;20078;-67
2023/03/06 06:29:20;;;;;;;6.50;1.42;;;;;;;-146.27;100.00;48423.50;5093175;28;20464;-67
2023/03/06 06:31:46;;;;;;;2.10;1.27;;;;;;;-146.27;100.00;48361.75;5094404;28;20028;-66
2023/03/06 06:34:12;;;;;;;1.65;1.10;;;;;;;-146.27;100.00;48415.53;5093519;28;20364;-66
2023/03/06 06:36:37;;;;;;;7.32;1.50;;;;;;;-146.27;100.00;48433.44;5095513;28;20032;-71
2023/03/06 06:39:04;;;;;;;2.00;1.10;;;;;;;-146.27;100.00;48397.59;5095454;28;20074;-67
2023/03/06 06:41:29;;;;;;;7.28;1.42;;;;;;;-146.27;100.00;48391.63;5092789;28;20078;-68
2023/03/06 06:43:55;;;;;;;3.20;1.35;;;;;;;-146.27;100.00;48423.50;5084954;28;20480;-68
2023/03/06 06:46:21;;;;;;;1.90;1.10;;;;;;;-146.27;100.00;48383.66;5091230;28;20383;-68
2023/03/06 06:48:48;;;;;;;4.28;1.27;;;;;;;-146.27;100.00;48403.56;5091051;28;20060;-67
2023/03/06 06:51:16;;;;;;;2.03;1.23;;;;;;;-146.27;100.00;48399.59;5076822;28;20024;-67
2023/03/06 06:53:41;;;;;;;3.53;1.63;;;;;;;-146.27;100.00;48413.53;5090636;28;20024;-67
2023/03/06 06:56:07;;;;;;;2.40;2.08;;;;;;;-146.27;100.00;48399.59;5086961;28;20085;-67
2023/03/06 06:58:32;;;;;;;3.80;1.70;;;;;;;-146.27;100.00;48387.63;5093678;28;20016;-66
2023/03/06 07:01:04;;;;;;;5.13;1.80;;;;;;;-146.27;100.00;48437.44;5092223;28;20074;-67
2023/03/06 07:03:29;;;;;;;2.72;1.65;;;;;;;-146.27;100.00;48393.63;5092921;28;20050;-67
2023/03/06 07:05:55;;;;;;;5.40;1.60;;;;;;;-146.27;100.00;48455.34;5088935;28;20052;-68
2023/03/06 07:08:21;;;;;;;3.75;1.85;;;;;;;-146.27;100.00;48387.63;5092658;28;20020;-69
2023/03/06 07:10:46;;;;;;;3.53;2.03;;;;;;;-146.27;100.00;48425.47;5089942;28;20024;-67
2023/03/06 07:13:11;;;;;;;7.10;2.35;;;;;;;-146.27;100.00;48417.50;5085240;28;20437;-66
2023/03/06 07:15:37;;;;;;;9.30;2.03;;;;;;;-146.27;100.00;48375.69;5094178;28;20024;-68
2023/03/06 07:18:02;;;;;;;6.03;2.33;;;;;;;-146.27;100.00;48399.59;5091173;28;20034;-66
2023/03/06 07:20:28;;;;;;;3.95;2.63;;;;;;;-146.27;100.00;48423.50;5082218;28;20025;-66
2023/03/06 07:22:53;;;;;;;3.38;2.45;;;;;;;-146.27;100.00;48387.63;5093046;28;20114;-69
2023/03/06 07:25:19;;;;;;;8.93;2.28;;;;;;;-146.27;100.00;48435.44;5092769;28;20103;-67
2023/03/06 07:27:45;;;;;;;8.55;2.67;;;;;;;-146.27;100.00;48407.56;5079280;28;20020;-68
2023/03/06 07:30:12;;;;;;;4.70;2.67;;;;;;;-146.27;100.00;48435.44;5080297;28;20035;-67
2023/03/06 07:32:38;;;;;;;4.13;2.30;;;;;;;-146.27;100.00;48413.53;5075427;28;20055;-67
2023/03/06 07:35:04;;;;;;;8.02;2.55;;;;;;;-146.27;100.00;48419.50;5078803;28;20021;-70
2023/03/06 07:37:30;;;;;;;5.38;3.10;;;;;;;-146.27;100.00;48381.66;5073721;28;21517;-68
2023/03/06 07:39:55;;;;;;;6.60;2.60;;;;;;;-146.27;100.00;48403.56;5074106;28;20039;-70
2023/03/06 07:42:20;;;;;;;4.75;2.80;;;;;;;-146.27;100.00;48415.53;5073731;28;20054;-68
2023/03/06 07:44:46;;;;;;;8.80;3.03;;;;;;;-146.27;100.00;48407.56;5078125;28;20419;-68
2023/03/06 07:47:12;;;;;;;5.88;3.03;;;;;;;-146.27;100.00;48429.47;5082612;28;20050;-71
2023/03/06 07:49:37;;;;;;;7.85;2.63;;;;;;;-146.27;100.00;48419.50;5080338;28;20023;-68
2023/03/06 07:52:03;;;;;;;9.90;2.67;;;;;;;-146.27;100.00;48381.66;5079646;28;20027;-67
2023/03/06 07:54:33;;;;;;;4.25;2.30;;;;;;;-146.27;100.00;48407.56;5093322;28;20028;-68
2023/03/06 07:56:59;;;;;;;4.93;1.58;;;;;;;-146.27;100.00;48391.63;5092848;28;20124;-68
2023/03/06 07:59:25;;;;;;;4.63;1.83;;;;;;;-146.27;100.00;48415.53;5090643;28;20454;-68
2023/03/06 08:01:52;;;;;;;4.90;1.55;;;;;;;-146.27;100.00;48407.56;5090259;28;20450;-69
2023/03/06 08:04:17;;;;;;;4.10;1.40;;;;;;;-146.27;100.00;48405.56;5091687;28;20555;-69
2023/03/06 08:06:43;;;;;;;4.03;1.75;;;;;;;-146.27;100.00;48385.66;5087369;28;20048;-70
2023/03/06 08:09:08;;;;;;;7.53;1.98;;;;;;;-146.27;100.00;48415.53;5093252;28;20038;-68
2023/03/06 08:11:33;;;;;;;6.47;2.03;;;;;;;-146.27;100.00;48381.66;5092841;28;20536;-69
2023/03/06 08:13:59;;;;;;;5.68;1.80;;;;;;;-146.27;100.00;48349.78;5093414;28;20035;-69
2023/03/06 08:16:28;;;;;;;7.72;2.05;;;;;;;-146.27;100.00;48399.59;5092905;28;20024;-69
2023/03/06 08:18:54;;;;;;;5.35;1.65;;;;;;;-146.27;100.00;48391.63;5087664;28;20107;-67
2023/03/06 08:21:24;;;;;;;4.82;1.77;;;;;;;-146.27;100.00;48387.63;5086534;28;20098;-68
2023/03/06 08:23:50;;;;;;;10.27;1.70;;;;;;;-146.27;100.00;48399.59;5092299;28;20138;-67
2023/03/06 08:26:21;;;;;;;3.10;1.52;;;;;;;-146.27;100.00;48407.56;5092302;28;20028;-67
2023/03/06 08:28:47;;;;;;;12.10;2.00;;;;;;;-146.27;100.00;48379.66;5089105;28;20479;-68
2023/03/06 08:31:30;;;;;;;5.60;1.63;;;;;;;-146.27;100.00;48407.56;5083039;28;20020;-68
2023/03/06 08:33:59;;;;;;;4.10;1.70;;;;;;;-146.27;100.00;48383.66;5093265;28;20024;-68
2023/03/06 08:36:25;;;;;;;6.20;1.80;;;;;;;-146.27;100.00;48375.69;5092932;28;20078;-69
2023/03/06 08:38:50;;;;;;;7.35;1.92;;;;;;;-146.27;100.00;48401.56;5093095;28;20028;-69
2023/03/06 08:41:16;;;;;;;5.78;1.67;;;;;;;-146.27;100.00;48379.66;5085076;28;20069;-69
2023/03/06 08:43:41;;;;;;;4.20;0.80;;;;;;;-146.27;100.00;48383.66;5089621;28;20293;-71
2023/03/06 08:46:08;;;;;;;7.03;1.50;;;;;;;-146.27;100.00;48367.72;5077585;28;20024;-69
2023/03/06 08:48:34;;;;;;;8.18;2.13;;;;;;;-146.27;100.00;48399.59;5082189;28;20416;-69
2023/03/06 08:50:59;;;;;;;3.90;1.50;;;;;;;-146.27;100.00;48387.63;5093150;28;20050;-69
2023/03/06 08:53:26;;;;;;;6.70;1.85;;;;;;;-146.27;100.00;48393.63;5092869;28;20426;-69
2023/03/06 08:55:52;;;;;;;4.78;1.55;;;;;;;-146.27;100.00;48373.69;5093174;28;20093;-68
2023/03/06 08:58:17;;;;;;;8.48;1.60;;;;;;;-146.27;100.00;48385.66;5091657;28;20024;-69
2023/03/06 09:00:42;;;;;;;5.60;1.73;;;;;;;-146.27;100.00;48379.66;5091894;28;20027;-67
2023/03/06 09:03:08;;;;;;;4.50;1.90;;;;;;;-146.27;100.00;48363.75;5086091;28;20472;-69
2023/03/06 09:05:34;;;;;;;4.25;1.60;;;;;;;-146.27;100.00;48381.66;5094959;28;20051;-70
2023/03/06 09:07:59;;;;;;;6.22;2.50;;;;;;;-146.27;100.00;48369.72;5094647;28;20020;-68
2023/03/06 09:10:25;;;;;;;3.97;1.73;;;;;;;-146.27;100.00;48411.53;5072728;28;20032;-69
2023/03/06 09:12:51;;;;;;;4.72;1.67;;;;;;;-146.27;100.00;48381.66;5089903;28;20024;-68
2023/03/06 09:15:18;;;;;;;11.15;1.83;;;;;;;-146.27;100.00;48395.59;5087002;28;20027;-68
2023/03/06 09:17:43;;;;;;;2.00;1.15;;;;;;;-146.27;100.00;48379.66;5079196;28;20488;-68
2023/03/06 09:20:10;;;;;;;5.53;2.10;;;;;;;-146.27;100.00;48375.69;5069398;28;20039;-69
2023/03/06 09:22:36;;;;;;;8.15;2.17;;;;;;;-146.27;100.00;48395.59;5073281;28;20119;-69
2023/03/06 09:25:03;;;;;;;6.10;1.80;;;;;;;-146.27;100.00;48347.81;5090641;28;20169;-68
2023/03/06 09:27:29;;;;;;;11.70;2.33;;;;;;;-146.27;100.00;48367.72;5092368;28;20039;-68
2023/03/06 09:29:55;;;;;;;4.97;1.55;;;;;;;-146.27;99.80;48383.66;5096064;28;20375;-68
2023/03/06 09:32:22;;;;;;;4.03;1.83;;;;;;;-146.27;98.83;48411.53;5094300;28;20028;-68
2023/03/06 09:34:47;;;;;;;4.00;1.80;;;;;;;-146.27;98.75;48367.72;5091111;28;20020;-68
2023/03/06 09:37:13;;;;;;;10.27;1.90;;;;;;;-146.27;99.26;48379.66;5087993;28;20077;-67
2023/03/06 09:39:38;;;;;;;4.43;2.33;;;;;;;-146.27;97.93;48363.75;5096494;28;20036;-69
2023/03/06 09:42:13;;;;;;;4.60;1.80;;;;;;;-146.27;97.05;48375.69;5090850;28;20028;-67
2023/03/06 09:44:39;;;;;;;9.05;2.08;;;;;;;-146.27;97.44;48375.69;5090025;28;20020;-68
2023/03/06 09:47:33;;;;;;;9.23;1.67;;;;;;;-146.27;97.08;48363.75;5095076;28;20024;-69
2023/03/06 09:50:33;;;;;;;7.82;1.50;;;;;;;-146.27;96.70;48387.63;5074607;28;20056;-69
2023/03/06 09:53:14;;;;;;;3.45;2.05;;;;;;;-146.27;96.39;48379.66;5095123;28;20034;-68
2023/03/06 09:55:43;;;;;;;4.50;1.70;;;;;;;-146.27;96.70;48393.63;5085560;28;20036;-68
2023/03/06 09:58:08;;;;;;;10.63;2.10;;;;;;;-146.27;97.51;48347.81;5073297;28;21017;-69
2023/03/06 10:00:58;;;;;;;6.85;1.98;;;;;;;-146.27;98.88;48379.66;5081502;28;20106;-69
2023/03/06 10:03:38;;;;;;;4.75;1.60;;;;;;;-146.27;98.71;48375.69;5094475;28;20043;-69
2023/03/06 10:06:13;;;;;;;4.47;1.42;;;;;;;-146.27;98.77;48351.78;5087731;28;20036;-67
2023/03/06 10:08:57;;;;;;;7.07;1.90;;;;;;;-146.27;98.06;48405.56;5094294;28;20112;-69
2023/03/06 10:11:46;;;;;;;4.00;2.08;;;;;;;-146.27;97.11;48403.56;5093995;28;20347;-70
2023/03/06 10:14:45;;;;;;;3.97;2.38;;;;;;;-146.27;96.49;48371.69;5095765;28;20652;-67
2023/03/06 10:17:17;;;;;;;5.50;2.72;;;;;;;-146.27;96.44;48337.84;5086216;28;20032;-68
2023/03/06 10:19:42;;;;;;;2.72;2.17;;;;;;;-146.27;96.21;48415.53;5081541;28;20035;-66
2023/03/06 10:22:37;;;;;;;7.78;2.35;;;;;;;-146.27;96.66;48373.69;5083416;28;20016;-68
2023/03/06 10:25:09;;;;;;;8.45;2.33;;;;;;;-146.27;98.58;48395.59;5088067;28;20031;-68
2023/03/06 10:27:48;;;;;;;3.88;1.85;;;;;;;-146.27;98.41;48373.69;5091806;28;20356;-68
2023/03/06 10:30:24;;;;;;;4.90;1.70;;;;;;;-146.27;96.45;48379.66;5095297;28;20371;-69
2023/03/06 10:32:58;;;;;;;4.28;1.95;;;;;;;-146.27;93.68;48343.81;5092564;28;20111;-66
2023/03/06 10:35:27;;;;;;;5.97;1.60;;;;;;;-146.27;92.69;48347.81;5086496;28;20023;-68
2023/03/06 10:37:59;;;;;;;4.22;1.90;;;;;;;-146.27;94.43;48343.81;5087124;28;20032;-67
2023/03/06 10:40:37;;;;;;;3.40;1.80;;;;;;;-146.27;91.88;48407.56;5093998;28;20043;-67
2023/03/06 10:43:09;;;;;;;6.60;2.17;;;;;;;-146.27;92.78;48399.59;5082648;28;20028;-68
2023/03/06 10:45:45;;;;;;;4.82;2.53;;;;;;;-146.27;89.99;48373.69;5076616;28;20559;-69
2023/03/06 10:48:19;;;;;;;4.43;2.67;;;;;;;-146.27;90.36;48355.78;5078498;28;20051;-68
2023/03/06 10:50:44;;;;;;;5.55;2.53;;;;;;;-146.27;87.96;48395.59;5080280;28;20123;-68
2023/03/06 10:53:25;;;;;;;14.38;3.60;;;;;;;-146.27;88.13;48343.81;5091670;28;20099;-68
2023/03/06 10:55:56;;;;;;;8.73;3.72;;;;;;;-146.27;92.20;48375.69;5083339;28;20468;-68
2023/03/06 10:58:30;;;;;;;6.93;3.45;;;;;;;-146.27;89.48;48361.75;5081491;28;20028;-69
2023/03/06 11:01:20;;;;;;;10.57;3.78;;;;;;;-146.27;89.30;48371.69;5088836;28;20461;-70
2023/03/06 11:03:46;;;;;;;6.50;3.25;;;;;;;-146.27;88.76;48347.81;5088942;28;20043;-67
2023/03/06 11:06:31;;;;;;;9.75;4.22;;;;;;;-146.27;88.67;48347.81;5079989;28;20118;-67
2023/03/06 11:09:23;;;;;;;8.52;5.05;;;;;;;-146.27;87.51;48339.84;5085393;28;20103;-67
2023/03/06 11:11:50;;;;;;;15.25;4.80;;;;;;;-146.27;85.89;48379.66;5092113;28;20407;-68